Time;durP1;ratioP1;P1;durP2;ratioP2;P2;SDS_P1;SDS_P2;PMS_P1;PMS_P2;Temp;Humidity;BMP_temperature;BMP_pressure;BME280_temperature;BME280_humidity;BME280_pressure;Samples;Min_cycle;Max_cycle;Signal;HPM_P1;HPM_P2
2023/05/30 00:01:14;;;;;;;6.63;2.47;;;;;;;;;;4978455;28;20577;-85
2023/05/30 00:03:44;;;;;;;5.70;2.15;;;;;;;;;;5013531;28;20041;-82
2023/05/30 00:06:11;;;;;;;9.68;2.40;;;;;;;;;;4996016;28;20032;-83
2023/05/30 00:08:36;;;;;;;6.32;2.17;;;;;;;;;;4995875;28;20037;-82
2023/05/30 00:11:02;;;;;;;6.15;2.05;;;;;;;;;;4979127;28;20422;-83
2023/05/30 00:13:28;;;;;;;5.22;2.40;;;;;;;;;;5012805;28;20068;-83
2023/05/30 00:15:54;;;;;;;6.35;2.20;;;;;;;;;;5007751;28;20031;-83
2023/05/30 00:18:22;;;;;;;9.68;2.75;;;;;;;;;;5012730;28;20559;-82
2023/05/30 00:20:48;;;;;;;6.88;2.35;;;;;;;;;;4978829;28;20061;-83
2023/05/30 00:23:14;;;;;;;8.73;2.63;;;;;;;;;;4995092;28;20034;-85
2023/05/30 00:25:40;;;;;;;6.93;2.00;;;;;;;;;;4995012;28;20030;-82
2023/05/30 00:28:07;;;;;;;4.72;1.80;;;;;;;;;;4995242;28;20033;-85
2023/05/30 00:30:33;;;;;;;5.30;1.85;;;;;;;;;;4998908;28;20030;-83
2023/05/30 00:33:01;;;;;;;7.75;2.20;;;;;;;;;;4981661;28;20089;-83
2023/05/30 00:35:26;;;;;;;4.70;2.22;;;;;;;;;;4992778;28;20022;-81
2023/05/30 00:37:52;;;;;;;5.72;2.25;;;;;;;;;;5023674;28;20078;-82
2023/05/30 00:40:17;;;;;;;9.00;2.53;;;;;;;;;;5024783;28;20026;-82
2023/05/30 00:42:43;;;;;;;8.18;2.42;;;;;;;;;;5029854;28;20029;-82
2023/05/30 00:45:08;;;;;;;4.35;1.95;;;;;;;;;;5011344;28;20104;-82
2023/05/30 00:47:34;;;;;;;5.85;2.65;;;;;;;;;;5007695;28;20641;-81
2023/05/30 00:50:00;;;;;;;6.80;2.15;;;;;;;;;;5002194;28;20406;-83
2023/05/30 00:52:25;;;;;;;6.88;1.85;;;;;;;;;;4998131;28;20034;-83
2023/05/30 00:54:51;;;;;;;5.72;1.95;;;;;;;;;;4998130;28;20513;-83
2023/05/30 00:57:16;;;;;;;6.03;1.95;;;;;;;;;;4982080;28;20065;-84
2023/05/30 00:59:43;;;;;;;9.57;2.75;;;;;;;;;;5015297;28;20088;-83
2023/05/30 01:02:09;;;;;;;6.70;1.80;;;;;;;;;;4996206;28;20036;-83
2023/05/30 01:04:34;;;;;;;5.68;2.13;;;;;;;;;;5015701;28;20116;-85
2023/05/30 01:07:00;;;;;;;6.25;1.83;;;;;;;;;;4998238;28;20072;-84
2023/05/30 01:09:26;;;;;;;5.80;1.60;;;;;;;;;;4981698;28;20025;-83
2023/05/30 01:11:52;;;;;;;5.80;1.88;;;;;;;;;;4981905;28;20046;-83
2023/05/30 01:14:22;;;;;;;7.70;2.60;;;;;;;;;;5015960;28;20038;-84
2023/05/30 01:16:52;;;;;;;7.65;2.33;;;;;;;;;;4999221;28;20104;-82
2023/05/30 01:19:45;;;;;;;6.90;1.90;;;;;;;;;;4981651;28;20034;-83
2023/05/30 01:22:20;;;;;;;5.63;1.75;;;;;;;;;;4999589;28;20068;-82
2023/05/30 01:24:55;;;;;;;5.53;1.80;;;;;;;;;;4986235;28;20080;-83
2023/05/30 01:27:20;;;;;;;6.60;2.00;;;;;;;;;;5006944;28;20034;-83
2023/05/30 01:29:47;;;;;;;5.97;1.80;;;;;;;;;;4994721;28;20041;-84
2023/05/30 01:32:13;;;;;;;5.90;2.42;;;;;;;;;;5004988;28;20054;-83
2023/05/30 01:34:39;;;;;;;6.68;2.78;;;;;;;;;;5018933;28;20090;-84
2023/05/30 01:37:05;;;;;;;8.02;2.42;;;;;;;;;;5013359;28;20048;-84
2023/05/30 01:39:30;;;;;;;6.50;2.40;;;;;;;;;;5042155;28;20046;-82
2023/05/30 01:42:14;;;;;;;9.15;2.40;;;;;;;;;;5020585;28;20030;-84
2023/05/30 01:44:46;;;;;;;5.47;1.88;;;;;;;;;;5033523;28;20042;-84
2023/05/30 01:47:14;;;;;;;6.15;2.33;;;;;;;;;;5022266;28;20034;-83
2023/05/30 01:49:51;;;;;;;8.18;2.45;;;;;;;;;;4981395;28;20046;-84
2023/05/30 01:52:17;;;;;;;6.30;1.98;;;;;;;;;;4984346;28;20101;-84
2023/05/30 01:54:45;;;;;;;6.00;2.25;;;;;;;;;;5014829;28;20501;-84
2023/05/30 01:57:16;;;;;;;6.00;2.05;;;;;;;;;;4982259;28;20050;-84
2023/05/30 01:59:42;;;;;;;10.32;2.30;;;;;;;;;;5015354;28;20168;-85
2023/05/30 02:02:09;;;;;;;5.07;2.08;;;;;;;;;;4981665;28;20124;-83
2023/05/30 02:04:35;;;;;;;6.88;2.10;;;;;;;;;;5015509;28;20022;-84
2023/05/30 02:07:01;;;;;;;6.28;1.95;;;;;;;;;;4997927;28;20491;-84
2023/05/30 02:09:27;;;;;;;4.90;2.10;;;;;;;;;;4995870;28;20022;-83
2023/05/30 02:11:52;;;;;;;9.48;2.05;;;;;;;;;;4994896;28;20041;-83
2023/05/30 02:14:19;;;;;;;6.93;1.75;;;;;;;;;;5014293;28;20030;-80
2023/05/30 02:16:45;;;;;;;5.72;1.85;;;;;;;;;;5014843;28;20102;-83
2023/05/30 02:19:16;;;;;;;9.45;2.33;;;;;;;;;;4991609;28;20073;-84
2023/05/30 02:21:42;;;;;;;6.38;1.73;;;;;;;;;;5009899;28;20046;-82
2023/05/30 02:24:08;;;;;;;6.50;1.90;;;;;;;;;;5014259;28;20025;-83
2023/05/30 02:26:36;;;;;;;4.38;1.90;;;;;;;;;;4979158;28;20495;-83
2023/05/30 02:29:03;;;;;;;6.45;2.35;;;;;;;;;;4994670;28;20049;-82
2023/05/30 02:31:28;;;;;;;5.10;1.90;;;;;;;;;;4982091;28;20030;-83
2023/05/30 02:33:54;;;;;;;6.93;1.63;;;;;;;;;;5018609;28;20418;-82
2023/05/30 02:36:20;;;;;;;8.23;2.00;;;;;;;;;;4983334;28;20034;-83
2023/05/30 02:38:46;;;;;;;5.63;2.13;;;;;;;;;;5009991;28;20368;-83
2023/05/30 02:41:11;;;;;;;5.53;2.20;;;;;;;;;;4995783;28;20109;-83
2023/05/30 02:43:39;;;;;;;6.55;2.20;;;;;;;;;;4996020;28;20442;-83
2023/05/30 02:46:05;;;;;;;6.13;2.20;;;;;;;;;;4995905;28;20022;-83
2023/05/30 02:48:34;;;;;;;6.95;1.73;;;;;;;;;;4995758;28;20044;-83
2023/05/30 02:50:59;;;;;;;9.35;2.17;;;;;;;;;;4979570;28;20511;-84
2023/05/30 02:53:25;;;;;;;9.38;2.30;;;;;;;;;;4978228;28;20034;-85
2023/05/30 02:55:54;;;;;;;6.20;2.20;;;;;;;;;;4975944;28;20038;-83
2023/05/30 02:58:40;;;;;;;5.60;2.25;;;;;;;;;;5013304;28;20030;-86
2023/05/30 03:01:30;;;;;;;11.40;2.40;;;;;;;;;;4979532;28;20034;-85
2023/05/30 03:03:56;;;;;;;6.47;2.15;;;;;;;;;;4979855;28;20022;-84
2023/05/30 03:06:28;;;;;;;7.68;2.17;;;;;;;;;;4996793;28;20503;-81
2023/05/30 03:09:16;;;;;;;;;;;;;;;;;;4986302;28;20457;-82
2023/05/30 03:11:42;;;;;;;6.63;2.00;;;;;;;;;;4983557;28;19910;-84
2023/05/30 03:14:08;;;;;;;8.18;2.72;;;;;;;;;;4982776;28;20132;-85
2023/05/30 03:16:34;;;;;;;6.53;2.10;;;;;;;;;;4980730;28;20060;-84
2023/05/30 03:19:01;;;;;;;4.43;2.15;;;;;;;;;;4976022;28;20050;-83
2023/05/30 03:21:28;;;;;;;10.65;2.63;;;;;;;;;;4992220;28;20435;-86
2023/05/30 03:23:55;;;;;;;8.00;2.70;;;;;;;;;;4992609;28;20030;-85
2023/05/30 03:26:24;;;;;;;7.75;2.33;;;;;;;;;;4996903;28;20026;-82
2023/05/30 03:28:50;;;;;;;5.93;2.40;;;;;;;;;;4965901;28;20044;-85
2023/05/30 03:31:22;;;;;;;7.97;2.28;;;;;;;;;;4974429;28;20108;-83
2023/05/30 03:33:48;;;;;;;7.82;2.42;;;;;;;;;;4997073;28;20033;-85
2023/05/30 03:36:16;;;;;;;7.45;2.20;;;;;;;;;;4974518;28;20033;-85
2023/05/30 03:38:43;;;;;;;8.15;2.40;;;;;;;;;;5005616;28;20034;-83
2023/05/30 03:41:08;;;;;;;6.53;1.95;;;;;;;;;;5002990;28;20487;-83
2023/05/30 03:43:34;;;;;;;5.63;2.25;;;;;;;;;;4997044;28;20050;-86
2023/05/30 03:45:59;;;;;;;7.47;2.28;;;;;;;;;;4982498;28;20102;-83
2023/05/30 03:48:25;;;;;;;6.97;2.20;;;;;;;;;;4982961;28;20033;-85
2023/05/30 03:50:50;;;;;;;6.28;2.28;;;;;;;;;;4966817;28;20037;-85
2023/05/30 03:53:16;;;;;;;6.45;2.42;;;;;;;;;;4981480;28;20076;-85
2023/05/30 03:55:42;;;;;;;7.60;2.40;;;;;;;;;;5013198;28;20033;-84
2023/05/30 03:58:07;;;;;;;12.02;2.50;;;;;;;;;;4973464;28;20031;-84
2023/05/30 04:00:32;;;;;;;5.78;2.00;;;;;;;;;;4960283;28;20088;-86
2023/05/30 04:02:59;;;;;;;7.82;2.10;;;;;;;;;;4959785;28;20081;-85
2023/05/30 04:05:26;;;;;;;8.50;2.20;;;;;;;;;;4960017;28;20033;-86
2023/05/30 04:07:53;;;;;;;7.25;2.28;;;;;;;;;;4976398;28;20026;-85
2023/05/30 04:10:18;;;;;;;7.57;2.65;;;;;;;;;;4993833;28;20076;-84
2023/05/30 04:12:44;;;;;;;7.28;2.42;;;;;;;;;;4960299;28;20125;-83
2023/05/30 04:15:10;;;;;;;7.28;2.50;;;;;;;;;;4979687;28;20040;-85
2023/05/30 04:17:36;;;;;;;6.05;2.20;;;;;;;;;;4982046;28;20499;-85
2023/05/30 04:20:04;;;;;;;9.35;2.72;;;;;;;;;;4967430;28;20487;-85
2023/05/30 04:22:32;;;;;;;7.65;2.40;;;;;;;;;;4994699;28;20014;-84
2023/05/30 04:24:58;;;;;;;7.25;2.30;;;;;;;;;;4987034;28;20101;-85
2023/05/30 04:27:24;;;;;;;7.13;2.45;;;;;;;;;;5003503;28;20025;-85
2023/05/30 04:29:50;;;;;;;4.65;1.67;;;;;;;;;;4988016;28;20030;-84
2023/05/30 04:32:17;;;;;;;6.15;2.22;;;;;;;;;;4999409;28;20025;-84
2023/05/30 04:34:43;;;;;;;10.23;2.67;;;;;;;;;;4982291;28;20046;-85
2023/05/30 04:37:10;;;;;;;7.10;1.92;;;;;;;;;;4994861;28;20037;-85
2023/05/30 04:39:37;;;;;;;5.18;2.00;;;;;;;;;;4976668;28;20038;-86
2023/05/30 04:42:07;;;;;;;6.95;2.22;;;;;;;;;;5004252;28;20034;-86
2023/05/30 04:44:37;;;;;;;7.53;2.33;;;;;;;;;;4996388;28;20030;-84
2023/05/30 04:47:10;;;;;;;9.65;2.88;;;;;;;;;;4985472;28;20027;-85
2023/05/30 04:49:41;;;;;;;5.80;2.25;;;;;;;;;;4960744;28;20116;-85
2023/05/30 04:52:07;;;;;;;7.47;2.75;;;;;;;;;;4960706;28;20038;-85
2023/05/30 04:54:33;;;;;;;9.45;2.60;;;;;;;;;;4994199;28;20515;-85
2023/05/30 04:56:58;;;;;;;7.72;2.63;;;;;;;;;;4977261;28;20053;-84
2023/05/30 04:59:25;;;;;;;5.78;2.30;;;;;;;;;;4976881;28;20046;-86
2023/05/30 05:01:52;;;;;;;6.90;2.22;;;;;;;;;;4963067;28;20084;-85
2023/05/30 05:04:17;;;;;;;5.90;2.10;;;;;;;;;;4979912;28;20037;-85
2023/05/30 05:06:43;;;;;;;5.50;1.92;;;;;;;;;;4963841;28;20034;-85
2023/05/30 05:09:10;;;;;;;12.02;2.38;;;;;;;;;;4979354;28;20025;-85
2023/05/30 05:11:36;;;;;;;8.32;2.60;;;;;;;;;;4996250;28;20149;-85
2023/05/30 05:14:02;;;;;;;8.70;2.65;;;;;;;;;;4966227;28;20034;-85
2023/05/30 05:16:28;;;;;;;6.75;2.40;;;;;;;;;;4966184;28;20482;-83
2023/05/30 05:18:53;;;;;;;8.15;2.42;;;;;;;;;;5011167;28;20033;-84
2023/05/30 05:21:19;;;;;;;7.60;1.90;;;;;;;;;;4999848;28;20037;-85
2023/05/30 05:23:44;;;;;;;6.93;2.50;;;;;;;;;;4983975;28;20525;-83
2023/05/30 05:26:12;;;;;;;6.07;2.53;;;;;;;;;;5016912;28;20118;-85
2023/05/30 05:28:38;;;;;;;6.25;2.35;;;;;;;;;;5017327;28;20037;-84
2023/05/30 05:31:04;;;;;;;7.78;2.45;;;;;;;;;;4983653;28;20490;-82
2023/05/30 05:33:29;;;;;;;11.90;2.35;;;;;;;;;;5015774;28;20414;-82
2023/05/30 05:35:55;;;;;;;5.38;1.95;;;;;;;;;;4965137;28;20041;-83
2023/05/30 05:38:20;;;;;;;6.70;2.13;;;;;;;;;;4998329;28;20033;-85
2023/05/30 05:40:46;;;;;;;9.98;2.60;;;;;;;;;;4984561;28;20037;-83
2023/05/30 05:43:12;;;;;;;10.02;2.70;;;;;;;;;;5023361;28;20057;-84
2023/05/30 05:45:37;;;;;;;12.85;3.85;;;;;;;;;;5015647;28;20026;-84
2023/05/30 05:48:03;;;;;;;7.22;2.42;;;;;;;;;;5001714;28;20030;-86
2023/05/30 05:50:29;;;;;;;10.00;2.22;;;;;;;;;;5015753;28;20052;-84
2023/05/30 05:52:54;;;;;;;5.13;2.17;;;;;;;;;;4997836;28;20061;-82
2023/05/30 05:55:20;;;;;;;8.82;2.30;;;;;;;;;;5015019;28;20120;-83
2023/05/30 05:57:45;;;;;;;7.57;2.50;;;;;;;;;;4997482;28;20097;-82
2023/05/30 06:00:12;;;;;;;7.85;2.80;;;;;;;;;;5021422;23;20038;-83
2023/05/30 06:02:40;;;;;;;7.55;2.30;;;;;;;;;;5019465;28;20104;-82
2023/05/30 06:05:06;;;;;;;5.68;2.00;;;;;;;;;;5043698;28;20482;-82
2023/05/30 06:07:32;;;;;;;9.13;2.70;;;;;;;;;;5017734;28;20490;-84
2023/05/30 06:09:58;;;;;;;10.27;2.33;;;;;;;;;;5008964;28;20097;-82
2023/05/30 06:12:24;;;;;;;8.43;2.17;;;;;;;;;;5011702;28;20045;-83
2023/05/30 06:14:49;;;;;;;12.88;2.65;;;;;;;;;;4999069;28;20036;-83
2023/05/30 06:17:15;;;;;;;7.47;2.42;;;;;;;;;;4998902;28;20025;-83
2023/05/30 06:19:41;;;;;;;8.38;2.05;;;;;;;;;;5017704;28;20387;-83
2023/05/30 06:22:07;;;;;;;6.03;2.50;;;;;;;;;;5016205;28;20045;-83
2023/05/30 06:24:33;;;;;;;7.22;2.10;;;;;;;;;;4998671;28;20499;-84
2023/05/30 06:26:59;;;;;;;6.75;2.30;;;;;;;;;;4998101;28;20029;-84
2023/05/30 06:29:26;;;;;;;8.75;2.38;;;;;;;;;;4999026;28;20030;-83
2023/05/30 06:31:51;;;;;;;14.00;2.80;;;;;;;;;;5000032;28;20033;-82
2023/05/30 06:34:17;;;;;;;9.43;2.10;;;;;;;;;;5016369;28;20395;-82
2023/05/30 06:36:42;;;;;;;11.45;2.60;;;;;;;;;;5015861;28;20022;-82
2023/05/30 06:39:15;;;;;;;8.25;2.40;;;;;;;;;;4979226;28;20036;-83
2023/05/30 06:41:44;;;;;;;7.28;2.20;;;;;;;;;;4973431;28;20402;-83
2023/05/30 06:44:09;;;;;;;13.13;2.97;;;;;;;;;;4997151;28;20112;-83
2023/05/30 06:46:35;;;;;;;9.13;2.40;;;;;;;;;;4979270;28;20038;-81
2023/05/30 06:49:00;;;;;;;10.93;2.47;;;;;;;;;;5007919;28;20026;-81
2023/05/30 06:51:26;;;;;;;7.82;2.53;;;;;;;;;;4986297;28;20029;-82
2023/05/30 06:53:52;;;;;;;12.63;2.25;;;;;;;;;;4985954;28;20042;-83
2023/05/30 06:56:18;;;;;;;8.68;2.80;;;;;;;;;;4996051;28;20041;-81
2023/05/30 06:58:44;;;;;;;10.90;2.88;;;;;;;;;;4996423;28;20033;-81
2023/05/30 07:01:10;;;;;;;5.18;2.05;;;;;;;;;;4996840;28;20030;-82
2023/05/30 07:03:36;;;;;;;7.25;2.30;;;;;;;;;;4979424;28;20025;-81
2023/05/30 07:06:01;;;;;;;7.88;2.75;;;;;;;;;;4963893;28;20041;-81
2023/05/30 07:08:27;;;;;;;6.15;1.95;;;;;;;;;;4995202;28;20064;-81
2023/05/30 07:10:53;;;;;;;8.48;2.70;;;;;;;;;;4978545;28;20647;-81
2023/05/30 07:13:18;;;;;;;10.77;2.00;;;;;;;;;;4993425;28;20031;-80
2023/05/30 07:15:44;;;;;;;5.50;1.98;;;;;;;;;;4993595;28;20053;-81
2023/05/30 07:18:10;;;;;;;11.65;3.17;;;;;;;;;;4943610;28;20045;-81
2023/05/30 07:20:36;;;;;;;8.77;2.65;;;;;;;;;;4959448;28;20118;-81
2023/05/30 07:23:01;;;;;;;9.68;2.70;;;;;;;;;;4983297;28;20547;-82
2023/05/30 07:25:27;;;;;;;10.98;2.63;;;;;;;;;;4989972;28;20033;-82
2023/05/30 07:27:53;;;;;;;6.97;2.22;;;;;;;;;;5002598;28;20390;-83
2023/05/30 07:30:18;;;;;;;11.18;2.33;;;;;;;;;;5013214;28;20026;-82
2023/05/30 07:32:44;;;;;;;5.30;2.00;;;;;;;;;;5019752;28;20583;-81
2023/05/30 07:35:09;;;;;;;7.72;1.98;;;;;;;;;;5002748;28;20286;-82
2023/05/30 07:37:36;;;;;;;6.55;2.00;;;;;;;;;;5014017;28;20037;-81
2023/05/30 07:40:04;;;;;;;8.52;1.63;;;;;;;;;;4993909;28;20034;-81
2023/05/30 07:42:30;;;;;;;5.65;1.80;;;;;;;;;;4980377;28;20510;-83
2023/05/30 07:44:55;;;;;;;7.90;2.15;;;;;;;;;;4971575;28;20089;-81
2023/05/30 07:47:21;;;;;;;7.80;2.10;;;;;;;;;;4974726;28;20459;-81
2023/05/30 07:49:46;;;;;;;8.90;2.15;;;;;;;;;;5016964;28;20025;-81
2023/05/30 07:52:12;;;;;;;8.10;2.42;;;;;;;;;;4996518;28;20080;-81
2023/05/30 07:54:38;;;;;;;8.02;2.08;;;;;;;;;;4975651;28;20034;-81
2023/05/30 07:57:04;;;;;;;7.18;1.75;;;;;;;;;;4968316;28;20041;-83
2023/05/30 07:59:29;;;;;;;4.80;1.63;;;;;;;;;;4998895;28;20118;-81
2023/05/30 08:01:55;;;;;;;6.55;2.35;;;;;;;;;;5006940;28;20124;-82
2023/05/30 08:04:20;;;;;;;7.68;2.00;;;;;;;;;;4994930;28;20539;-82
2023/05/30 08:06:46;;;;;;;4.82;1.20;;;;;;;;;;4957041;28;20038;-81
2023/05/30 08:09:12;;;;;;;10.98;1.98;;;;;;;;;;5003168;28;20109;-82
2023/05/30 08:11:37;;;;;;;391.95;264.17;;;;;;;;;;5000739;28;20046;-82
2023/05/30 08:14:03;;;;;;;15.85;7.13;;;;;;;;;;5009878;28;20433;-80
2023/05/30 08:16:29;;;;;;;4.78;1.92;;;;;;;;;;4985383;28;20033;-79
2023/05/30 08:18:55;;;;;;;9.07;2.40;;;;;;;;;;4992451;28;20031;-77
2023/05/30 08:21:21;;;;;;;4.13;1.42;;;;;;;;;;5008781;28;20037;-80
2023/05/30 08:23:47;;;;;;;6.57;1.73;;;;;;;;;;5015021;28;20034;-79
2023/05/30 08:26:13;;;;;;;4.60;1.70;;;;;;;;;;4983396;28;20069;-77
2023/05/30 08:28:38;;;;;;;7.63;1.50;;;;;;;;;;5013584;28;20097;-77
2023/05/30 08:31:08;;;;;;;6.93;1.70;;;;;;;;;;5020531;28;20037;-77
2023/05/30 08:33:34;;;;;;;;;;;;;;;;;;4995803;28;20053;-77
2023/05/30 08:36:06;;;;;;;13.48;2.58;;;;;;;;;;4984265;28;19909;-77
2023/05/30 08:38:31;;;;;;;5.88;1.77;;;;;;;;;;5001913;28;20022;-76
2023/05/30 08:40:57;;;;;;;8.30;2.00;;;;;;;;;;5003587;28;20393;-76
2023/05/30 08:43:23;;;;;;;8.98;2.25;;;;;;;;;;5002342;28;20432;-77
2023/05/30 08:45:51;;;;;;;7.85;2.22;;;;;;;;;;5010832;28;20056;-77
2023/05/30 08:48:18;;;;;;;8.27;1.83;;;;;;;;;;4980316;28;20045;-77
2023/05/30 08:50:44;;;;;;;6.53;1.85;;;;;;;;;;5001167;28;20061;-77
2023/05/30 08:53:17;;;;;;;5.55;1.80;;;;;;;;;;5017454;28;20026;-76
2023/05/30 08:55:48;;;;;;;5.28;1.70;;;;;;;;;;5016505;28;20029;-77
2023/05/30 08:58:19;;;;;;;12.02;2.35;;;;;;;;;;4965936;28;20084;-76
2023/05/30 09:00:45;;;;;;;5.63;1.80;;;;;;;;;;4992579;28;20160;-77
2023/05/30 09:03:13;;;;;;;5.65;1.65;;;;;;;;;;4989120;28;20224;-78
2023/05/30 09:05:38;;;;;;;7.28;1.60;;;;;;;;;;4953140;28;20382;-78
2023/05/30 09:08:05;;;;;;;8.05;2.00;;;;;;;;;;5008036;28;20490;-79
2023/05/30 09:10:32;;;;;;;9.10;3.13;;;;;;;;;;5019426;28;20019;-77
2023/05/30 09:12:58;;;;;;;9.38;2.67;;;;;;;;;;4964557;28;20046;-77
2023/05/30 09:15:27;;;;;;;7.57;2.08;;;;;;;;;;4981524;28;20041;-77
2023/05/30 09:17:53;;;;;;;7.53;1.92;;;;;;;;;;4988176;28;20037;-77
2023/05/30 09:20:20;;;;;;;6.38;2.13;;;;;;;;;;5005139;28;20022;-76
2023/05/30 09:22:46;;;;;;;7.22;2.58;;;;;;;;;;5000502;28;20094;-77
2023/05/30 09:25:12;;;;;;;6.03;1.90;;;;;;;;;;5015359;28;20030;-77
2023/05/30 09:27:38;;;;;;;5.32;1.60;;;;;;;;;;5020853;28;20033;-77
2023/05/30 09:30:06;;;;;;;6.25;2.10;;;;;;;;;;4998399;28;20029;-78
2023/05/30 09:32:34;;;;;;;9.88;1.83;;;;;;;;;;4970119;28;20034;-77
2023/05/30 09:35:03;;;;;;;9.02;2.25;;;;;;;;;;5004675;28;20030;-78
2023/05/30 09:37:40;;;;;;;5.65;2.05;;;;;;;;;;5005364;28;20066;-78
2023/05/30 09:40:10;;;;;;;6.38;1.83;;;;;;;;;;5019414;28;20125;-78
2023/05/30 09:42:52;;;;;;;6.78;1.60;;;;;;;;;;4985011;28;20069;-77
2023/05/30 09:45:19;;;;;;;4.07;1.58;;;;;;;;;;5003844;28;20113;-78
2023/05/30 09:47:49;;;;;;;5.72;1.67;;;;;;;;;;4996007;28;20038;-78
2023/05/30 09:50:19;;;;;;;7.60;2.25;;;;;;;;;;5020475;28;20361;-78
2023/05/30 09:52:45;;;;;;;6.55;1.95;;;;;;;;;;4988124;28;20061;-79
2023/05/30 09:55:14;;;;;;;9.07;1.98;;;;;;;;;;4972532;28;20042;-79
2023/05/30 09:57:40;;;;;;;7.53;2.17;;;;;;;;;;5028757;28;20562;-81
2023/05/30 10:00:11;;;;;;;8.13;1.90;;;;;;;;;;5013315;28;20076;-79
2023/05/30 10:02:40;;;;;;;6.75;1.60;;;;;;;;;;5012728;28;20034;-79
2023/05/30 10:05:06;;;;;;;5.65;1.63;;;;;;;;;;4998175;28;20066;-79
2023/05/30 10:07:32;;;;;;;9.43;2.60;;;;;;;;;;4999346;28;20036;-78
2023/05/30 10:10:02;;;;;;;8.98;2.15;;;;;;;;;;4986426;28;20098;-78
2023/05/30 10:12:30;;;;;;;7.50;1.83;;;;;;;;;;4985521;28;20054;-78
2023/05/30 10:14:56;;;;;;;7.13;1.90;;;;;;;;;;4968308;28;20056;-79
2023/05/30 10:17:22;;;;;;;5.63;1.80;;;;;;;;;;4990164;28;20062;-79
2023/05/30 10:20:23;;;;;;;4.40;1.30;;;;;;;;;;4979691;28;20097;-78
2023/05/30 10:22:54;;;;;;;5.05;1.80;;;;;;;;;;5001483;28;20045;-78
2023/05/30 10:25:21;;;;;;;6.53;1.88;;;;;;;;;;4977302;28;20065;-79
2023/05/30 10:28:00;;;;;;;13.27;2.05;;;;;;;;;;5005980;28;20038;-80
2023/05/30 10:30:30;;;;;;;7.47;1.85;;;;;;;;;;4965935;28;20018;-80
2023/05/30 10:33:02;;;;;;;6.82;2.05;;;;;;;;;;4982970;28;20045;-80
2023/05/30 10:35:29;;;;;;;4.47;1.70;;;;;;;;;;4976509;28;20111;-80
2023/05/30 10:37:56;;;;;;;8.68;1.83;;;;;;;;;;5000884;28;20040;-81
2023/05/30 10:40:35;;;;;;;6.50;2.08;;;;;;;;;;4997636;28;20493;-81
2023/05/30 10:43:15;;;;;;;4.38;1.50;;;;;;;;;;5007491;28;20129;-81
2023/05/30 10:46:05;;;;;;;5.75;1.92;;;;;;;;;;4992816;28;20022;-82
2023/05/30 10:48:46;;;;;;;6.97;2.10;;;;;;;;;;4983764;28;20049;-81
2023/05/30 10:51:15;;;;;;;4.55;1.60;;;;;;;;;;5015910;28;20050;-81
2023/05/30 10:53:42;;;;;;;6.43;2.03;;;;;;;;;;4987920;28;20026;-81
2023/05/30 10:56:27;;;;;;;6.30;3.03;;;;;;;;;;5015745;28;20466;-80
2023/05/30 10:58:53;;;;;;;11.00;1.88;;;;;;;;;;4974137;28;20052;-81
2023/05/30 11:01:23;;;;;;;8.38;2.00;;;;;;;;;;4973071;28;20034;-81
2023/05/30 11:03:54;;;;;;;9.13;1.83;;;;;;;;;;5012554;28;20490;-81
2023/05/30 11:06:20;;;;;;;6.22;1.60;;;;;;;;;;4983773;28;20034;-81
2023/05/30 11:08:46;;;;;;;11.18;4.25;;;;;;;;;;4975459;28;20029;-81
2023/05/30 11:11:16;;;;;;;11.40;1.90;;;;;;;;;;4971310;28;20514;-81
2023/05/30 11:13:49;;;;;;;6.18;2.15;;;;;;;;;;5013326;28;20026;-80
2023/05/30 11:16:23;;;;;;;8.20;2.65;;;;;;;;;;4982130;28;20034;-80
2023/05/30 11:18:50;;;;;;;9.52;1.98;;;;;;;;;;4989141;28;20054;-80
2023/05/30 11:21:15;;;;;;;6.53;2.30;;;;;;;;;;4971160;28;20098;-83
2023/05/30 11:23:59;;;;;;;5.50;1.73;;;;;;;;;;4966352;28;20122;-80
2023/05/30 11:26:44;;;;;;;8.55;1.92;;;;;;;;;;4981627;28;20475;-81
2023/05/30 11:29:39;;;;;;;8.30;1.85;;;;;;;;;;4980036;28;20026;-82
2023/05/30 11:32:06;;;;;;;7.22;1.80;;;;;;;;;;4984641;28;20046;-81
2023/05/30 11:34:32;;;;;;;6.03;1.92;;;;;;;;;;4982181;28;20502;-80
2023/05/30 11:41:26;;;;;;;6.97;1.77;;;;;;;;;;5006453;28;20101;-82
2023/05/30 11:44:53;;;;;;;7.63;2.22;;;;;;;;;;4918777;29;20039;-82
2023/05/30 11:47:27;;;;;;;9.00;2.10;;;;;;;;;;4933186;28;20042;-80
2023/05/30 11:49:54;;;;;;;7.15;2.00;;;;;;;;;;4978304;28;20026;-81
2023/05/30 11:52:57;;;;;;;5.63;1.88;;;;;;;;;;4992350;28;20223;-80
2023/05/30 11:55:54;;;;;;;7.07;2.20;;;;;;;;;;4987477;28;20026;-80
2023/05/30 11:58:49;;;;;;;6.32;2.03;;;;;;;;;;4984774;28;20506;-81
2023/05/30 12:01:16;;;;;;;4.88;1.90;;;;;;;;;;5017593;23;20041;-80
2023/05/30 12:03:46;;;;;;;6.25;1.70;;;;;;;;;;4983829;28;20021;-80
2023/05/30 12:06:14;;;;;;;6.85;2.15;;;;;;;;;;5008856;28;20045;-77
2023/05/30 12:08:40;;;;;;;11.68;2.63;;;;;;;;;;4996451;28;20525;-78
2023/05/30 12:11:06;;;;;;;5.95;2.03;;;;;;;;;;5010913;28;20537;-79
2023/05/30 12:13:32;;;;;;;6.97;2.15;;;;;;;;;;4992707;28;20030;-77
2023/05/30 12:16:01;;;;;;;4.38;1.70;;;;;;;;;;4957188;28;20518;-78
2023/05/30 12:18:26;;;;;;;5.85;1.92;;;;;;;;;;5008184;28;20034;-77
2023/05/30 12:20:52;;;;;;;5.35;2.05;;;;;;;;;;4980076;28;20033;-78
2023/05/30 12:23:28;;;;;;;7.40;1.98;;;;;;;;;;5001045;28;20026;-79
2023/05/30 12:25:55;;;;;;;4.55;1.55;;;;;;;;;;4991210;28;20129;-78
2023/05/30 12:28:21;;;;;;;6.55;2.13;;;;;;;;;;4978852;28;20026;-79
2023/05/30 12:30:48;;;;;;;7.85;2.60;;;;;;;;;;4997711;28;20398;-78
2023/05/30 12:33:18;;;;;;;11.20;2.33;;;;;;;;;;4969370;28;20038;-76
2023/05/30 12:35:52;;;;;;;6.50;2.00;;;;;;;;;;4993010;28;20267;-76
2023/05/30 12:38:18;;;;;;;6.78;1.98;;;;;;;;;;4981017;28;20049;-77
2023/05/30 12:40:49;;;;;;;6.90;1.88;;;;;;;;;;4978367;28;20064;-78
2023/05/30 12:43:15;;;;;;;14.70;2.60;;;;;;;;;;4980174;28;20023;-79
2023/05/30 12:45:44;;;;;;;8.88;2.40;;;;;;;;;;5009517;28;20026;-78
2023/05/30 12:48:11;;;;;;;7.90;3.10;;;;;;;;;;4983433;28;20040;-78
2023/05/30 12:50:37;;;;;;;6.82;2.22;;;;;;;;;;4995658;28;20030;-79
2023/05/30 12:53:03;;;;;;;5.57;2.10;;;;;;;;;;5006351;28;20031;-78
2023/05/30 12:55:29;;;;;;;8.70;2.10;;;;;;;;;;5007695;28;20033;-79
2023/05/30 12:57:56;;;;;;;12.35;2.50;;;;;;;;;;4977516;28;20421;-78
2023/05/30 13:00:22;;;;;;;8.13;2.45;;;;;;;;;;4997174;28;20070;-78
2023/05/30 13:02:51;;;;;;;5.63;1.73;;;;;;;;;;4974198;28;20104;-78
2023/05/30 13:05:19;;;;;;;6.93;1.77;;;;;;;;;;5006972;28;20034;-79
2023/05/30 13:07:46;;;;;;;9.60;2.55;;;;;;;;;;4985904;28;20030;-78
2023/05/30 13:10:15;;;;;;;14.15;2.22;;;;;;;;;;4980138;28;20191;-78
2023/05/30 13:12:41;;;;;;;9.15;2.65;;;;;;;;;;4977933;28;20500;-79
2023/05/30 13:15:07;;;;;;;13.07;4.03;;;;;;;;;;4968664;28;20472;-86
2023/05/30 13:17:33;;;;;;;7.68;2.60;;;;;;;;;;4987200;28;20092;-85
2023/05/30 13:19:59;;;;;;;9.65;2.88;;;;;;;;;;4979359;28;20034;-85
2023/05/30 13:22:26;;;;;;;12.93;3.47;;;;;;;;;;5013526;28;20034;-85
2023/05/30 13:24:52;;;;;;;8.20;2.58;;;;;;;;;;4995642;28;20023;-85
2023/05/30 13:27:17;;;;;;;8.52;2.72;;;;;;;;;;4982131;28;20038;-84
2023/05/30 13:29:44;;;;;;;5.32;2.17;;;;;;;;;;4979824;28;20558;-86
2023/05/30 13:32:09;;;;;;;7.60;2.70;;;;;;;;;;4967175;28;20048;-86
2023/05/30 13:34:35;;;;;;;6.75;2.72;;;;;;;;;;4993166;28;20031;-84
2023/05/30 13:37:04;;;;;;;7.97;2.50;;;;;;;;;;4986341;28;20386;-84
2023/05/30 13:39:31;;;;;;;5.35;2.13;;;;;;;;;;5016299;28;20025;-84
2023/05/30 13:41:57;;;;;;;6.68;2.75;;;;;;;;;;4996225;28;20034;-84
2023/05/30 13:44:22;;;;;;;6.03;2.30;;;;;;;;;;5000422;28;20053;-83
2023/05/30 13:46:48;;;;;;;6.47;1.83;;;;;;;;;;4994125;28;20026;-85
2023/05/30 13:49:14;;;;;;;6.20;2.40;;;;;;;;;;5008146;28;20104;-84
2023/05/30 13:51:40;;;;;;;8.18;2.25;;;;;;;;;;4971268;28;20419;-84
2023/05/30 13:54:07;;;;;;;8.50;2.60;;;;;;;;;;4972231;28;20060;-82
2023/05/30 13:56:33;;;;;;;7.45;2.53;;;;;;;;;;4998930;28;20479;-84
2023/05/30 13:58:59;;;;;;;6.10;2.20;;;;;;;;;;4997942;28;20034;-85
2023/05/30 14:01:26;;;;;;;11.38;2.92;;;;;;;;;;5002543;28;21957;-84
2023/05/30 14:03:52;;;;;;;9.70;4.03;;;;;;;;;;4984166;28;20027;-84
2023/05/30 14:06:18;;;;;;;6.80;2.50;;;;;;;;;;4986768;28;20553;-85
2023/05/30 14:08:47;;;;;;;8.80;2.78;;;;;;;;;;4979956;28;20559;-83
2023/05/30 14:11:13;;;;;;;8.50;2.38;;;;;;;;;;4962384;28;20058;-83
2023/05/30 14:13:40;;;;;;;6.57;2.65;;;;;;;;;;4992416;28;20104;-85
2023/05/30 14:16:06;;;;;;;7.07;2.80;;;;;;;;;;4983201;28;20053;-84
2023/05/30 14:18:32;;;;;;;5.93;2.35;;;;;;;;;;4995793;28;20410;-84
2023/05/30 14:20:58;;;;;;;7.57;2.50;;;;;;;;;;4997792;28;20375;-83
2023/05/30 14:23:24;;;;;;;8.15;2.63;;;;;;;;;;4988529;28;20033;-84
2023/05/30 14:25:50;;;;;;;9.02;2.67;;;;;;;;;;4981851;28;20511;-83
2023/05/30 14:28:16;;;;;;;8.60;2.88;;;;;;;;;;4951192;28;20035;-84
2023/05/30 14:30:42;;;;;;;10.55;2.92;;;;;;;;;;4991313;28;20129;-82
2023/05/30 14:33:08;;;;;;;6.28;2.53;;;;;;;;;;4977160;28;20030;-84
2023/05/30 14:35:34;;;;;;;7.47;2.17;;;;;;;;;;4967489;28;20042;-83
2023/05/30 14:38:00;;;;;;;8.63;2.65;;;;;;;;;;4993486;28;20034;-84
2023/05/30 14:40:27;;;;;;;7.32;2.28;;;;;;;;;;4982911;28;20033;-83
2023/05/30 14:42:52;;;;;;;12.50;2.65;;;;;;;;;;4992675;28;20038;-84
2023/05/30 14:45:18;;;;;;;9.45;2.70;;;;;;;;;;4971479;28;20439;-84
2023/05/30 14:47:44;;;;;;;8.52;3.05;;;;;;;;;;4966232;28;20444;-82
2023/05/30 14:50:11;;;;;;;7.53;2.67;;;;;;;;;;5008777;28;20026;-82
2023/05/30 14:52:37;;;;;;;8.52;2.45;;;;;;;;;;4961325;28;20116;-83